Time;durP1;ratioP1;P1;durP2;ratioP2;P2;SDS_P1;SDS_P2;PMS_P1;PMS_P2;Temp;Humidity;BMP_temperature;BMP_pressure;BME280_temperature;BME280_humidity;BME280_pressure;Samples;Min_cycle;Max_cycle;Signal;HPM_P1;HPM_P2
2021/09/23 00:00:19;;;;;;;38.88;22.70;;;12.20;99.90;;;;;;4791150;29;20104;-85
2021/09/23 00:05:16;;;;;;;32.83;22.48;;;12.20;99.90;;;;;;4809692;29;20050;-85
2021/09/23 00:07:42;;;;;;;42.70;24.00;;;12.10;99.90;;;;;;4809050;29;20050;-87
2021/09/23 00:10:10;;;;;;;35.63;22.55;;;12.20;99.90;;;;;;4809332;29;20054;-86
2021/09/23 00:12:37;;;;;;;38.35;23.67;;;12.10;99.90;;;;;;4777617;29;20470;-87
2021/09/23 00:15:05;;;;;;;35.70;24.77;;;12.10;99.90;;;;;;4792356;29;20123;-86
2021/09/23 00:17:31;;;;;;;39.47;24.90;;;12.10;99.90;;;;;;4791447;29;20454;-87
2021/09/23 00:19:57;;;;;;;40.08;24.05;;;12.10;99.90;;;;;;4773199;29;20059;-87
2021/09/23 00:22:23;;;;;;;40.40;24.85;;;12.00;99.90;;;;;;4800456;29;20415;-85
2021/09/23 00:24:49;;;;;;;40.40;26.15;;;12.00;99.90;;;;;;4805948;29;20161;-86
2021/09/23 00:27:14;;;;;;;40.60;25.33;;;12.00;99.90;;;;;;4788231;29;20089;-86
2021/09/23 00:29:40;;;;;;;41.42;25.10;;;12.00;99.90;;;;;;4790974;29;20078;-86
2021/09/23 00:32:06;;;;;;;38.67;25.90;;;12.00;99.90;;;;;;4789782;29;20054;-85
2021/09/23 00:34:32;;;;;;;43.10;26.67;;;12.00;99.90;;;;;;4806115;29;20510;-88
2021/09/23 00:36:58;;;;;;;42.90;25.52;;;12.00;99.90;;;;;;4805660;29;20050;-85
2021/09/23 00:39:24;;;;;;;40.42;26.02;;;12.00;99.90;;;;;;4822576;29;20059;-85
2021/09/23 00:41:51;;;;;;;45.00;27.02;;;12.00;99.90;;;;;;4775732;29;20129;-85
2021/09/23 00:44:23;;;;;;;48.30;28.38;;;11.90;99.90;;;;;;4806385;29;20106;-86
2021/09/23 00:46:50;;;;;;;43.67;27.42;;;11.90;99.90;;;;;;4788406;29;20488;-85
2021/09/23 00:49:17;;;;;;;44.10;27.45;;;11.90;99.90;;;;;;4806605;29;20138;-86
2021/09/23 00:51:44;;;;;;;42.60;27.00;;;11.90;99.90;;;;;;4802703;29;20059;-85
2021/09/23 00:54:11;;;;;;;42.42;26.65;;;12.00;99.90;;;;;;4805398;29;20054;-86
2021/09/23 00:56:37;;;;;;;45.63;28.83;;;11.90;99.90;;;;;;4806030;29;20126;-87
2021/09/23 00:59:04;;;;;;;44.05;26.58;;;12.00;99.90;;;;;;4791145;29;20047;-86
2021/09/23 01:01:29;;;;;;;47.30;29.33;;;11.90;99.90;;;;;;4791346;29;20054;-86
2021/09/23 01:03:56;;;;;;;45.53;27.98;;;11.90;99.90;;;;;;4775337;29;20463;-85
2021/09/23 01:06:22;;;;;;;51.45;29.35;;;11.90;99.90;;;;;;4791035;29;20114;-86
2021/09/23 01:08:58;;;;;;;45.05;28.70;;;12.00;99.90;;;;;;4799882;29;20061;-86
2021/09/23 01:11:27;;;;;;;45.40;27.83;;;11.90;99.90;;;;;;4795314;29;20086;-86
2021/09/23 01:13:53;;;;;;;44.53;28.50;;;12.00;99.90;;;;;;4805322;29;20054;-86
2021/09/23 01:16:19;;;;;;;43.67;28.27;;;12.00;99.90;;;;;;4806069;29;20099;-85
2021/09/23 01:18:45;;;;;;;46.42;28.02;;;12.00;99.90;;;;;;4801940;29;20115;-85
2021/09/23 01:21:11;;;;;;;43.03;28.20;;;12.00;99.90;;;;;;4804290;29;20129;-85
2021/09/23 01:23:39;;;;;;;45.47;27.35;;;12.00;99.90;;;;;;4790494;29;20137;-87
2021/09/23 01:26:10;;;;;;;44.63;27.38;;;12.00;99.90;;;;;;4790676;29;20050;-85
2021/09/23 01:28:38;;;;;;;45.95;28.48;;;11.90;99.90;;;;;;4805707;29;20376;-87
2021/09/23 01:31:05;;;;;;;43.35;27.30;;;11.90;99.90;;;;;;4786743;29;20058;-85
2021/09/23 01:33:30;;;;;;;47.80;28.08;;;11.90;99.90;;;;;;4805183;29;20436;-86
2021/09/23 01:35:58;;;;;;;43.13;27.45;;;11.90;99.90;;;;;;4789718;29;20070;-85
2021/09/23 01:38:27;;;;;;;46.85;27.85;;;12.00;99.90;;;;;;4805252;29;20053;-85
2021/09/23 01:40:55;;;;;;;51.70;29.45;;;11.90;99.90;;;;;;4803364;29;20060;-85
2021/09/23 01:43:21;;;;;;;51.42;30.02;;;11.90;99.90;;;;;;4805489;29;20046;-85
2021/09/23 01:45:47;;;;;;;49.80;31.10;;;11.90;99.90;;;;;;4804917;29;20057;-86
2021/09/23 01:48:13;;;;;;;55.17;31.80;;;11.90;99.90;;;;;;4790286;29;20136;-86
2021/09/23 01:50:40;;;;;;;54.58;31.52;;;12.00;99.90;;;;;;4790166;29;20059;-87
2021/09/23 01:53:05;;;;;;;51.65;32.92;;;12.00;99.90;;;;;;4805005;29;20046;-87
2021/09/23 01:55:31;;;;;;;57.05;32.63;;;12.00;99.90;;;;;;4779089;29;20070;-86
2021/09/23 01:57:57;;;;;;;50.83;31.50;;;12.00;99.90;;;;;;4783359;29;20158;-86
2021/09/23 02:00:23;;;;;;;56.65;32.97;;;11.90;99.90;;;;;;4804895;29;20046;-85
2021/09/23 02:02:51;;;;;;;55.05;31.85;;;12.00;99.90;;;;;;4789396;29;20486;-85
2021/09/23 02:05:17;;;;;;;56.75;31.83;;;12.00;99.90;;;;;;4790701;29;20046;-86
2021/09/23 02:07:44;;;;;;;56.00;33.03;;;12.00;99.90;;;;;;4789667;29;20053;-88
2021/09/23 02:10:10;;;;;;;55.83;31.48;;;12.00;99.90;;;;;;4778983;29;20050;-86
2021/09/23 02:12:36;;;;;;;51.33;31.30;;;12.00;99.90;;;;;;4806009;29;20049;-86
2021/09/23 02:15:03;;;;;;;63.03;33.13;;;12.00;99.90;;;;;;4780691;29;20377;-86
2021/09/23 02:17:29;;;;;;;58.40;32.38;;;12.00;99.90;;;;;;4801012;29;20059;-86
2021/09/23 02:19:56;;;;;;;58.20;33.83;;;12.00;99.90;;;;;;4782064;29;20051;-86
2021/09/23 02:22:22;;;;;;;51.78;30.63;;;12.00;99.90;;;;;;4799195;29;20050;-86
2021/09/23 02:24:48;;;;;;;73.13;32.03;;;12.00;99.90;;;;;;4789314;29;20397;-85
2021/09/23 02:27:14;;;;;;;53.38;32.65;;;12.00;99.90;;;;;;4805324;29;20051;-85
2021/09/23 02:29:40;;;;;;;55.70;31.65;;;12.00;99.90;;;;;;4802183;29;20058;-86
2021/09/23 02:32:07;;;;;;;53.50;32.75;;;12.00;99.90;;;;;;4783695;29;20061;-86
2021/09/23 02:34:33;;;;;;;54.50;32.00;;;12.00;99.90;;;;;;4804666;29;20499;-86
2021/09/23 02:36:59;;;;;;;57.38;31.35;;;12.00;99.90;;;;;;4803518;29;20130;-85
2021/09/23 02:39:25;;;;;;;54.38;31.95;;;12.00;99.90;;;;;;4788669;29;20062;-86
2021/09/23 02:41:51;;;;;;;52.13;30.45;;;12.00;99.90;;;;;;4778991;29;20049;-85
2021/09/23 02:44:17;;;;;;;58.28;32.33;;;12.00;99.90;;;;;;4789450;29;20073;-87
2021/09/23 02:46:43;;;;;;;54.83;30.88;;;11.90;99.90;;;;;;4789672;29;20055;-87
2021/09/23 02:49:09;;;;;;;56.30;33.10;;;11.90;99.90;;;;;;4804145;29;20050;-87
2021/09/23 02:51:35;;;;;;;53.08;31.58;;;11.90;99.90;;;;;;4789515;29;20065;-86
2021/09/23 02:54:00;;;;;;;54.30;31.73;;;11.80;99.90;;;;;;4788836;29;20058;-86
2021/09/23 02:56:26;;;;;;;52.85;31.42;;;11.80;99.90;;;;;;4787287;29;20043;-86
2021/09/23 02:58:52;;;;;;;60.80;32.45;;;11.80;99.90;;;;;;4788624;29;20089;-86
2021/09/23 03:01:18;;;;;;;56.58;33.22;;;11.80;99.90;;;;;;4787149;29;20046;-86
2021/09/23 03:03:45;;;;;;;58.60;33.15;;;11.80;99.90;;;;;;4786166;29;20046;-87
2021/09/23 03:06:11;;;;;;;61.58;33.53;;;11.80;99.90;;;;;;4795565;29;20103;-86
2021/09/23 03:08:37;;;;;;;60.55;33.28;;;11.80;99.90;;;;;;4801876;29;20042;-87
2021/09/23 03:11:03;;;;;;;58.72;34.30;;;11.80;99.90;;;;;;4794462;29;20046;-86
2021/09/23 03:13:29;;;;;;;60.60;32.92;;;11.80;99.90;;;;;;4771684;29;20050;-87
2021/09/23 03:15:55;;;;;;;64.65;33.53;;;11.80;99.90;;;;;;4788491;29;20166;-86
2021/09/23 03:18:21;;;;;;;54.80;31.40;;;11.80;99.90;;;;;;4804626;29;20046;-85
2021/09/23 03:20:47;;;;;;;65.18;33.13;;;11.80;99.90;;;;;;4784718;29;20046;-87
2021/09/23 03:23:14;;;;;;;62.65;33.30;;;11.80;99.90;;;;;;4789008;29;20074;-87
2021/09/23 03:25:41;;;;;;;61.10;33.22;;;11.80;99.90;;;;;;4785400;29;20061;-85
2021/09/23 03:28:07;;;;;;;57.65;32.05;;;11.80;99.90;;;;;;4803446;29;20050;-85
2021/09/23 03:30:34;;;;;;;58.42;33.33;;;11.80;99.90;;;;;;4803985;29;20146;-86
2021/09/23 03:33:01;;;;;;;58.35;32.78;;;11.90;99.90;;;;;;4788326;29;20103;-86
2021/09/23 03:35:27;;;;;;;59.92;32.47;;;11.90;99.90;;;;;;4803994;29;20061;-86
2021/09/23 03:37:53;;;;;;;60.38;33.92;;;11.90;99.90;;;;;;4803339;29;20137;-87
2021/09/23 03:40:18;;;;;;;60.90;33.70;;;12.00;99.90;;;;;;4803868;29;20053;-86
2021/09/23 03:42:44;;;;;;;71.53;35.03;;;11.90;99.90;;;;;;4787657;29;20381;-86
2021/09/23 03:45:10;;;;;;;61.15;34.45;;;11.90;99.90;;;;;;4790902;29;20046;-86
2021/09/23 03:47:36;;;;;;;60.63;33.08;;;11.90;99.90;;;;;;4789192;29;20561;-86
2021/09/23 03:50:02;;;;;;;73.55;35.20;;;11.90;99.90;;;;;;4804094;29;20050;-87
2021/09/23 03:52:28;;;;;;;65.57;37.33;;;11.90;99.90;;;;;;4807712;29;20046;-86
2021/09/23 03:54:54;;;;;;;71.20;37.83;;;12.00;99.90;;;;;;4791657;29;20057;-88
2021/09/23 03:57:20;;;;;;;70.32;37.70;;;12.00;99.90;;;;;;4786840;29;20057;-86
2021/09/23 03:59:49;;;;;;;74.05;35.97;;;12.10;99.90;;;;;;4788332;29;20106;-86
2021/09/23 04:02:14;;;;;;;70.38;36.78;;;12.20;99.90;;;;;;4791509;29;20058;-86
2021/09/23 04:04:41;;;;;;;72.75;37.00;;;12.30;99.90;;;;;;4792353;29;20571;-86
2021/09/23 04:07:07;;;;;;;69.32;36.88;;;12.30;99.90;;;;;;4791007;29;20057;-86
2021/09/23 04:09:33;;;;;;;69.07;37.58;;;12.30;99.90;;;;;;4786409;29;20073;-86
2021/09/23 04:11:58;;;;;;;71.88;36.58;;;12.30;99.90;;;;;;4776807;29;20051;-86
2021/09/23 04:14:24;;;;;;;72.45;38.45;;;12.40;99.90;;;;;;4792098;29;20114;-85
2021/09/23 04:16:50;;;;;;;76.55;37.05;;;12.40;99.90;;;;;;4792087;29;20061;-85
2021/09/23 04:19:17;;;;;;;70.60;37.45;;;12.40;99.90;;;;;;4806087;29;20043;-85
2021/09/23 04:21:43;;;;;;;71.10;37.00;;;12.50;99.90;;;;;;4799428;29;20094;-86
2021/09/23 04:24:09;;;;;;;72.13;38.10;;;12.50;99.90;;;;;;4780075;29;20097;-86
2021/09/23 04:26:35;;;;;;;82.13;38.67;;;12.50;99.90;;;;;;4792040;29;20047;-86
2021/09/23 04:29:01;;;;;;;73.05;37.67;;;12.50;99.90;;;;;;4805663;29;20793;-86
2021/09/23 04:31:26;;;;;;;76.25;38.63;;;12.50;99.90;;;;;;4779263;29;20450;-86
2021/09/23 04:33:53;;;;;;;77.45;37.50;;;12.60;99.90;;;;;;4791960;29;20050;-86
2021/09/23 04:36:19;;;;;;;75.35;37.42;;;12.50;99.90;;;;;;4788017;29;20058;-86
2021/09/23 04:38:44;;;;;;;75.15;39.03;;;12.50;99.90;;;;;;4777089;29;20884;-86
2021/09/23 04:41:11;;;;;;;81.85;38.05;;;12.50;99.90;;;;;;4790393;29;20080;-86
2021/09/23 04:43:39;;;;;;;70.78;38.03;;;12.50;99.90;;;;;;4771729;29;20086;-86
2021/09/23 04:46:05;;;;;;;73.30;39.05;;;12.60;99.90;;;;;;4784759;29;20051;-87
2021/09/23 04:48:30;;;;;;;79.95;39.65;;;12.60;99.90;;;;;;4806630;29;20057;-86
2021/09/23 04:50:56;;;;;;;80.65;38.58;;;12.60;99.90;;;;;;4806410;29;20055;-88
2021/09/23 04:53:22;;;;;;;83.57;38.42;;;12.60;99.90;;;;;;4775961;29;20498;-86
2021/09/23 04:55:48;;;;;;;82.32;39.17;;;12.60;99.90;;;;;;4791455;29;20050;-86
2021/09/23 04:58:13;;;;;;;78.15;39.90;;;12.60;99.90;;;;;;4788085;29;20470;-86
2021/09/23 05:00:39;;;;;;;79.80;38.83;;;12.70;99.90;;;;;;4765830;29;20049;-86
2021/09/23 05:03:06;;;;;;;74.57;37.80;;;12.70;99.90;;;;;;4800632;29;20514;-88
2021/09/23 05:05:31;;;;;;;79.78;39.83;;;12.70;99.90;;;;;;4806272;29;20038;-87
2021/09/23 05:07:57;;;;;;;82.28;40.88;;;12.80;99.90;;;;;;4785784;29;20069;-88
2021/09/23 05:10:23;;;;;;;79.25;39.67;;;12.80;99.90;;;;;;4776500;29;20061;-86
2021/09/23 05:12:48;;;;;;;83.50;40.38;;;12.90;99.90;;;;;;4805373;29;20057;-86
2021/09/23 05:15:14;;;;;;;82.63;39.03;;;12.90;99.90;;;;;;4780334;29;20047;-86
2021/09/23 05:17:40;;;;;;;78.90;39.35;;;13.00;99.90;;;;;;4787984;29;20468;-86
2021/09/23 05:20:08;;;;;;;77.80;38.08;;;13.00;99.90;;;;;;4780326;29;20051;-86
2021/09/23 05:22:33;;;;;;;76.18;38.95;;;13.00;99.90;;;;;;4805675;29;20074;-86
2021/09/23 05:24:59;;;;;;;81.22;39.70;;;13.00;99.90;;;;;;4805393;29;20050;-89
2021/09/23 05:27:25;;;;;;;86.75;39.55;;;13.00;99.90;;;;;;4790580;29;20139;-87
2021/09/23 05:29:51;;;;;;;77.70;38.85;;;13.00;99.90;;;;;;4767222;29;20050;-86
2021/09/23 05:32:16;;;;;;;75.40;39.88;;;13.00;99.90;;;;;;4805090;29;20050;-86
2021/09/23 05:34:42;;;;;;;82.95;39.95;;;13.00;99.90;;;;;;4805883;29;20077;-86
2021/09/23 05:37:09;;;;;;;82.20;39.00;;;13.00;99.90;;;;;;4804520;29;20066;-86
2021/09/23 05:39:36;;;;;;;78.95;39.70;;;13.00;99.90;;;;;;4773625;29;20103;-86
2021/09/23 05:42:02;;;;;;;84.45;39.72;;;13.00;99.90;;;;;;4792967;29;20050;-89
2021/09/23 05:44:29;;;;;;;81.43;39.15;;;13.00;99.90;;;;;;4782290;29;20050;-86
2021/09/23 05:46:55;;;;;;;75.93;39.08;;;13.00;99.90;;;;;;4790629;29;20076;-87
2021/09/23 05:49:22;;;;;;;81.18;39.67;;;13.00;99.90;;;;;;4804302;29;20039;-86
2021/09/23 05:51:48;;;;;;;79.53;39.78;;;12.90;99.90;;;;;;4805321;29;20178;-87
2021/09/23 05:54:14;;;;;;;76.13;38.05;;;13.00;99.90;;;;;;4790138;29;20487;-86
2021/09/23 05:56:41;;;;;;;78.75;38.88;;;13.00;99.90;;;;;;4792470;29;20086;-86
2021/09/23 05:59:07;;;;;;;81.30;39.83;;;13.00;99.90;;;;;;4785141;29;20106;-86
2021/09/23 06:01:33;;;;;;;80.18;39.42;;;13.00;99.90;;;;;;4789894;29;20457;-86
2021/09/23 06:03:59;;;;;;;79.47;39.33;;;13.00;99.90;;;;;;4785848;29;20066;-86
2021/09/23 06:06:25;;;;;;;81.90;39.92;;;13.00;99.90;;;;;;4775059;29;20055;-86
2021/09/23 06:08:51;;;;;;;83.18;40.47;;;13.00;99.90;;;;;;4803091;29;20050;-86
2021/09/23 06:11:16;;;;;;;82.70;39.30;;;13.10;99.90;;;;;;4792366;29;20050;-86
2021/09/23 06:13:43;;;;;;;85.00;39.42;;;13.10;99.90;;;;;;4774735;29;20054;-86
2021/09/23 06:16:10;;;;;;;76.22;38.33;;;13.10;99.90;;;;;;4804294;29;20076;-87
2021/09/23 06:18:37;;;;;;;75.68;39.13;;;13.10;99.90;;;;;;4804447;29;20529;-85
2021/09/23 06:21:07;;;;;;;86.38;40.17;;;13.10;99.90;;;;;;4799388;29;20426;-85
2021/09/23 06:23:35;;;;;;;82.43;39.63;;;13.20;99.90;;;;;;4795639;29;20073;-86
2021/09/23 06:26:01;;;;;;;81.00;40.15;;;13.20;99.90;;;;;;4804845;29;20164;-88
2021/09/23 06:28:27;;;;;;;83.03;40.50;;;13.20;99.90;;;;;;4805266;29;20133;-86
2021/09/23 06:30:53;;;;;;;79.20;41.33;;;13.20;99.90;;;;;;4788720;29;20497;-87
2021/09/23 06:33:18;;;;;;;80.80;39.30;;;13.20;99.90;;;;;;4804300;29;20050;-86
2021/09/23 06:35:44;;;;;;;82.47;41.13;;;13.20;99.90;;;;;;4798866;29;20046;-86
2021/09/23 06:38:10;;;;;;;89.38;39.78;;;13.20;99.90;;;;;;4771864;29;20416;-87
2021/09/23 06:40:37;;;;;;;80.88;38.95;;;13.30;99.90;;;;;;4789076;29;20399;-86
2021/09/23 06:43:03;;;;;;;81.95;38.60;;;13.30;99.90;;;;;;4774957;29;20065;-86
2021/09/23 06:45:28;;;;;;;79.45;40.13;;;13.30;99.90;;;;;;4804077;29;20054;-86
2021/09/23 06:47:54;;;;;;;81.95;41.45;;;13.30;99.90;;;;;;4789118;29;20051;-86
2021/09/23 06:50:20;;;;;;;80.18;38.45;;;13.30;99.90;;;;;;4787403;29;20077;-85
2021/09/23 06:52:46;;;;;;;92.07;41.90;;;13.40;99.90;;;;;;4804704;29;20129;-86
2021/09/23 06:55:11;;;;;;;83.40;39.85;;;13.50;99.90;;;;;;4788723;29;20119;-87
2021/09/23 06:57:37;;;;;;;77.35;37.85;;;13.50;99.90;;;;;;4804516;29;20058;-86
2021/09/23 07:00:05;;;;;;;83.50;38.50;;;13.60;99.90;;;;;;4776941;29;20519;-85
2021/09/23 07:02:30;;;;;;;77.28;38.38;;;13.80;99.90;;;;;;4803683;29;20118;-85
2021/09/23 07:04:56;;;;;;;72.75;37.25;;;13.90;99.90;;;;;;4804224;29;20619;-86
2021/09/23 07:07:22;;;;;;;74.35;36.65;;;14.00;99.90;;;;;;4776459;29;20453;-87
2021/09/23 07:09:48;;;;;;;68.15;36.70;;;14.10;99.90;;;;;;4774899;29;20429;-86
2021/09/23 07:12:14;;;;;;;68.20;34.80;;;14.20;99.90;;;;;;4788563;29;20412;-86
2021/09/23 07:14:40;;;;;;;69.82;35.92;;;14.30;99.90;;;;;;4775734;29;20055;-83
2021/09/23 07:17:06;;;;;;;63.33;32.65;;;14.40;99.90;;;;;;4786866;29;20055;-84
2021/09/23 07:19:32;;;;;;;67.28;34.95;;;14.50;99.90;;;;;;4791737;29;20051;-84
2021/09/23 07:21:58;;;;;;;65.20;34.08;;;14.70;99.90;;;;;;4776844;29;20053;-84
2021/09/23 07:24:25;;;;;;;58.53;31.90;;;14.70;99.90;;;;;;4792823;29;20043;-84
2021/09/23 07:26:51;;;;;;;53.03;29.92;;;14.90;99.90;;;;;;4793931;29;20152;-87
2021/09/23 07:29:17;;;;;;;44.83;26.48;;;15.00;99.90;;;;;;4779927;29;20062;-89
2021/09/23 07:31:43;;;;;;;54.05;29.13;;;15.10;99.90;;;;;;4792279;29;20395;-87
2021/09/23 07:34:09;;;;;;;49.85;29.08;;;15.10;99.90;;;;;;4791158;29;20079;-88
2021/09/23 07:36:35;;;;;;;45.88;25.52;;;15.20;99.90;;;;;;4793543;29;20594;-87
2021/09/23 07:39:04;;;;;;;50.00;23.67;;;15.30;99.90;;;;;;4788075;29;20054;-88
2021/09/23 07:41:30;;;;;;;39.50;21.42;;;15.30;99.90;;;;;;4791860;29;20054;-88
2021/09/23 07:43:55;;;;;;;42.08;21.52;;;15.40;99.90;;;;;;4783135;29;20061;-88
2021/09/23 07:46:21;;;;;;;37.17;20.60;;;15.50;99.90;;;;;;4792934;29;20054;-88
2021/09/23 07:48:50;;;;;;;34.90;19.25;;;15.60;99.90;;;;;;4763177;29;20049;-87
2021/09/23 07:51:15;;;;;;;29.00;17.77;;;15.70;99.90;;;;;;4779053;29;20058;-90
2021/09/23 07:53:41;;;;;;;29.63;16.05;;;15.80;99.90;;;;;;4778906;29;20071;-88
2021/09/23 07:56:06;;;;;;;33.63;16.45;;;15.80;99.90;;;;;;4793656;29;20055;-87
2021/09/23 07:58:34;;;;;;;24.95;15.18;;;15.90;99.90;;;;;;4796905;29;20059;-87
2021/09/23 08:01:00;;;;;;;29.10;16.33;;;15.90;99.90;;;;;;4791875;29;20103;-85
2021/09/23 08:03:26;;;;;;;30.77;16.42;;;15.90;99.90;;;;;;4794592;29;20063;-85
2021/09/23 08:05:51;;;;;;;29.70;15.90;;;15.90;99.90;;;;;;4794702;29;20126;-85
2021/09/23 08:08:17;;;;;;;26.75;15.55;;;16.00;99.90;;;;;;4778360;29;20498;-91
2021/09/23 08:10:43;;;;;;;25.42;14.75;;;16.10;99.90;;;;;;4805689;29;20104;-85
2021/09/23 08:13:08;;;;;;;28.75;15.55;;;16.10;99.90;;;;;;4790285;29;20067;-87
2021/09/23 08:15:34;;;;;;;22.70;12.85;;;16.20;99.90;;;;;;4802252;29;20123;-85
2021/09/23 08:18:00;;;;;;;20.63;13.10;;;16.20;99.90;;;;;;4806897;29;20568;-85
2021/09/23 08:20:27;;;;;;;21.38;11.35;;;16.30;99.90;;;;;;4790048;29;20057;-88
2021/09/23 08:22:53;;;;;;;19.33;9.07;;;16.40;99.90;;;;;;4790634;29;20735;-87
2021/09/23 08:25:19;;;;;;;15.23;8.45;;;16.40;99.90;;;;;;4793131;29;20050;-90
2021/09/23 08:27:44;;;;;;;13.05;5.32;;;16.40;99.90;;;;;;4805671;29;20053;-86
2021/09/23 08:30:11;;;;;;;10.73;3.90;;;16.40;99.90;;;;;;4820882;29;20490;-87
2021/09/23 08:32:37;;;;;;;10.18;3.78;;;16.50;99.90;;;;;;4803712;29;20051;-87
2021/09/23 08:35:06;;;;;;;5.63;3.05;;;16.50;99.90;;;;;;4809251;29;20135;-87
2021/09/23 08:37:33;;;;;;;11.60;2.78;;;16.60;99.90;;;;;;4799422;29;20707;-86
2021/09/23 08:39:59;;;;;;;7.57;2.80;;;16.70;99.90;;;;;;4821134;29;20077;-87
2021/09/23 08:42:26;;;;;;;10.52;2.30;;;16.80;99.90;;;;;;4815657;29;20051;-87
2021/09/23 08:44:51;;;;;;;5.47;2.55;;;16.90;99.90;;;;;;4798042;29;20058;-87
2021/09/23 08:47:17;;;;;;;7.55;2.30;;;17.00;99.90;;;;;;4820444;29;20053;-87
2021/09/23 08:49:43;;;;;;;9.05;2.42;;;17.10;99.90;;;;;;4766693;29;20042;-90
2021/09/23 08:52:09;;;;;;;11.18;2.10;;;17.20;99.90;;;;;;4801045;29;20054;-87
2021/09/23 08:54:34;;;;;;;13.48;2.60;;;17.20;99.90;;;;;;4773994;29;20187;-88
2021/09/23 08:57:03;;;;;;;7.20;2.30;;;17.30;99.90;;;;;;4779497;29;20105;-87
2021/09/23 08:59:32;;;;;;;10.23;2.25;;;17.30;99.90;;;;;;4792774;29;20404;-88
2021/09/23 09:01:59;;;;;;;5.70;2.72;;;17.40;99.90;;;;;;4785996;29;20086;-87
2021/09/23 09:04:32;;;;;;;4.82;2.28;;;17.40;99.90;;;;;;4800079;29;20050;-92
2021/09/23 09:07:02;;;;;;;9.52;2.20;;;17.50;99.90;;;;;;4810311;29;20408;-87
2021/09/23 09:09:29;;;;;;;5.40;2.08;;;17.50;99.90;;;;;;4815856;29;20086;-88
2021/09/23 09:11:56;;;;;;;8.60;3.50;;;17.60;99.90;;;;;;4795620;29;20058;-88
2021/09/23 09:14:29;;;;;;;6.82;2.15;;;17.60;99.90;;;;;;4792608;29;20509;-87
2021/09/23 09:17:06;;;;;;;5.50;2.20;;;17.70;99.90;;;;;;4791284;29;20054;-87
2021/09/23 09:19:45;;;;;;;6.78;2.47;;;17.80;99.90;;;;;;4794860;29;20054;-90
2021/09/23 09:22:12;;;;;;;10.40;2.38;;;17.70;99.90;;;;;;4796649;29;20062;-88
2021/09/23 09:24:58;;;;;;;14.32;2.33;;;17.80;99.90;;;;;;4787363;29;20183;-90
2021/09/23 09:27:24;;;;;;;7.93;2.20;;;17.80;99.90;;;;;;4811592;29;20063;-89
2021/09/23 09:29:55;;;;;;;6.57;2.05;;;17.80;99.90;;;;;;4790028;29;20057;-89
2021/09/23 09:32:41;;;;;;;7.20;1.92;;;17.80;99.90;;;;;;4805692;29;20088;-89
2021/09/23 09:35:16;;;;;;;7.95;2.22;;;17.80;99.90;;;;;;4790342;29;20577;-88
2021/09/23 09:37:45;;;;;;;14.68;2.03;;;17.90;99.90;;;;;;4794192;29;20114;-91
2021/09/23 09:40:13;;;;;;;6.35;1.98;;;18.00;99.90;;;;;;4791407;29;20046;-90
2021/09/23 09:42:43;;;;;;;6.55;2.00;;;18.20;99.90;;;;;;4798511;29;20059;-89
2021/09/23 09:45:15;;;;;;;9.57;2.00;;;18.20;99.90;;;;;;4820845;29;20062;-89
2021/09/23 09:47:41;;;;;;;13.13;1.73;;;18.30;99.90;;;;;;4799117;29;20077;-89
2021/09/23 09:50:13;;;;;;;7.50;2.20;;;18.30;99.90;;;;;;4796772;29;20058;-89
2021/09/23 09:52:39;;;;;;;8.90;1.77;;;18.30;99.90;;;;;;4791939;29;20058;-89
2021/09/23 09:55:09;;;;;;;8.68;2.60;;;18.30;99.90;;;;;;4790832;29;20050;-90
2021/09/23 09:57:49;;;;;;;8.15;1.80;;;18.20;99.90;;;;;;4790558;29;20133;-90
2021/09/23 10:00:17;;;;;;;5.97;2.17;;;18.10;99.90;;;;;;4798246;29;20041;-89
2021/09/23 10:02:44;;;;;;;6.88;1.85;;;18.10;99.90;;;;;;4803723;29;20119;-89
2021/09/23 10:05:15;;;;;;;5.05;1.83;;;18.00;99.90;;;;;;4793096;29;20054;-90
2021/09/23 10:07:47;;;;;;;9.75;2.13;;;17.90;99.90;;;;;;4790104;29;20062;-89
2021/09/23 10:10:14;;;;;;;10.65;2.28;;;17.80;99.90;;;;;;4776848;29;20111;-91
2021/09/23 10:12:42;;;;;;;10.60;1.92;;;17.70;99.90;;;;;;4817399;29;20507;-90
2021/09/23 10:15:14;;;;;;;9.95;1.65;;;17.60;99.90;;;;;;4789154;29;20057;-88
2021/09/23 10:17:42;;;;;;;9.68;1.33;;;17.60;99.90;;;;;;4803411;29;20046;-89
2021/09/23 10:20:09;;;;;;;9.52;1.77;;;17.60;99.90;;;;;;4783685;29;20112;-88
2021/09/23 10:22:35;;;;;;;14.45;2.05;;;17.60;99.90;;;;;;4804428;29;20050;-91
2021/09/23 10:25:04;;;;;;;8.00;1.77;;;17.60;99.90;;;;;;4806445;29;20070;-87
2021/09/23 10:30:15;;;;;;;9.07;2.15;;;17.40;99.90;;;;;;4799241;29;20058;-90
2021/09/23 10:32:41;;;;;;;9.90;2.50;;;17.40;99.90;;;;;;4819824;29;20125;-90
2021/09/23 10:35:07;;;;;;;8.00;2.05;;;17.30;99.90;;;;;;4786349;29;20080;-89
2021/09/23 10:37:35;;;;;;;14.77;2.03;;;17.30;99.90;;;;;;4797486;29;20115;-92
2021/09/23 10:40:02;;;;;;;10.43;2.08;;;17.30;99.90;;;;;;4814199;29;20057;-90
2021/09/23 10:42:28;;;;;;;11.02;2.83;;;17.30;99.90;;;;;;4800108;29;20604;-89
2021/09/23 10:44:55;;;;;;;11.77;2.05;;;17.30;99.90;;;;;;4796139;29;20125;-90
2021/09/23 10:47:30;;;;;;;11.35;2.72;;;17.20;99.90;;;;;;4782902;29;20065;-92
2021/09/23 10:49:57;;;;;;;11.05;2.03;;;17.20;99.90;;;;;;4795043;29;20078;-90
2021/09/23 10:52:25;;;;;;;11.98;2.30;;;17.10;99.90;;;;;;4794092;29;20051;-90
2021/09/23 10:54:52;;;;;;;12.13;2.25;;;17.00;99.90;;;;;;4830449;29;20068;-90
2021/09/23 10:57:20;;;;;;;13.07;2.58;;;17.00;99.90;;;;;;4789206;29;20051;-90
2021/09/23 10:59:48;;;;;;;13.18;2.22;;;16.90;99.90;;;;;;4797970;29;20054;-89
2021/09/23 11:02:24;;;;;;;15.65;2.55;;;16.80;99.90;;;;;;4809780;29;20134;-90
2021/09/23 11:04:53;;;;;;;12.43;3.33;;;16.70;99.90;;;;;;4794183;29;20073;-90
2021/09/23 11:07:20;;;;;;;11.88;3.45;;;16.50;99.90;;;;;;4789056;29;20093;-90
2021/09/23 11:10:13;;;;;;;17.83;3.20;;;16.40;99.90;;;;;;4792934;29;20392;-89
2021/09/23 11:12:42;;;;;;;14.77;2.70;;;16.40;99.90;;;;;;4805447;29;20169;-90
2021/09/23 11:15:12;;;;;;;13.50;2.80;;;16.30;99.90;;;;;;4813199;29;20115;-90
2021/09/23 11:17:40;;;;;;;21.65;3.88;;;16.20;99.90;;;;;;4791920;29;20416;-94
2021/09/23 11:20:12;;;;;;;16.75;3.30;;;16.10;99.90;;;;;;4788674;29;20055;-91
2021/09/23 11:22:44;;;;;;;20.50;4.03;;;16.10;99.90;;;;;;4806935;29;20100;-93
2021/09/23 11:25:22;;;;;;;19.05;3.40;;;16.10;99.90;;;;;;4809300;29;20046;-90
2021/09/23 11:27:49;;;;;;;16.92;3.10;;;16.10;99.90;;;;;;4791502;29;20061;-89
2021/09/23 11:30:17;;;;;;;15.65;3.03;;;16.20;99.90;;;;;;4793220;29;20107;-90
2021/09/23 11:32:46;;;;;;;20.42;3.72;;;16.20;99.90;;;;;;4793508;29;20504;-91
2021/09/23 11:35:12;;;;;;;15.38;3.22;;;16.30;99.90;;;;;;4800190;29;20164;-88
2021/09/23 11:37:38;;;;;;;13.05;3.65;;;16.40;99.90;;;;;;4794579;29;20086;-89
2021/09/23 11:40:06;;;;;;;14.55;3.22;;;16.40;99.90;;;;;;4778315;29;20089;-88
2021/09/23 11:42:33;;;;;;;12.30;3.35;;;16.40;99.90;;;;;;4796684;29;20047;-88
2021/09/23 11:45:14;;;;;;;15.43;3.08;;;16.50;99.90;;;;;;4790136;29;20541;-89
2021/09/23 11:47:47;;;;;;;12.85;2.83;;;16.60;99.90;;;;;;4786319;29;20134;-91
2021/09/23 11:50:36;;;;;;;14.57;2.88;;;16.70;99.90;;;;;;4792147;29;20527;-87
2021/09/23 11:53:10;;;;;;;14.80;2.95;;;16.80;99.90;;;;;;4807907;29;20046;-88
2021/09/23 11:55:52;;;;;;;10.88;2.55;;;16.90;99.90;;;;;;4783507;29;20069;-88
2021/09/23 11:58:18;;;;;;;13.55;2.80;;;17.00;99.90;;;;;;4783215;29;20073;-86
2021/09/23 12:00:51;;;;;;;9.88;2.03;;;17.20;99.90;;;;;;4806078;29;20461;-91
2021/09/23 12:03:18;;;;;;;8.70;2.03;;;17.30;99.90;;;;;;4796765;29;20246;-87
2021/09/23 12:05:46;;;;;;;14.30;2.38;;;17.30;99.90;;;;;;4812613;29;20069;-91
2021/09/23 12:08:13;;;;;;;10.02;2.58;;;17.30;99.90;;;;;;4790368;29;20392;-89
2021/09/23 12:10:56;;;;;;;12.88;2.88;;;17.30;99.90;;;;;;4817977;29;20508;-87
2021/09/23 12:13:37;;;;;;;13.13;2.13;;;17.40;99.90;;;;;;4815746;29;20059;-88
2021/09/23 12:16:11;;;;;;;12.85;3.22;;;17.40;99.90;;;;;;4799276;29;20053;-87
2021/09/23 12:18:37;;;;;;;11.25;2.15;;;17.50;99.90;;;;;;4793363;29;20677;-89
2021/09/23 12:21:25;;;;;;;8.77;2.22;;;17.60;99.90;;;;;;4793383;29;20602;-88
2021/09/23 12:23:57;;;;;;;14.20;2.63;;;17.80;99.90;;;;;;4788829;29;20053;-87
2021/09/23 12:26:25;;;;;;;6.47;2.00;;;17.90;99.90;;;;;;4789946;29;20082;-87
2021/09/23 12:29:06;;;;;;;10.05;2.10;;;18.10;99.90;;;;;;4791959;29;20077;-88
2021/09/23 12:31:32;;;;;;;11.57;2.13;;;18.20;99.90;;;;;;4807323;29;20403;-90
2021/09/23 12:34:02;;;;;;;11.52;2.00;;;18.20;99.90;;;;;;4800745;29;20204;-88
2021/09/23 12:36:33;;;;;;;8.63;1.95;;;18.20;99.90;;;;;;4807313;29;20467;-88